createdAt,value
2018-09-29T00:01:54.416Z,3.33
2018-09-29T00:04:22.723Z,4.05
2018-09-29T00:06:50.988Z,4.40
2018-09-29T00:09:19.401Z,3.35
2018-09-29T00:11:47.752Z,3.52
2018-09-29T00:14:16.111Z,3.55
2018-09-29T00:16:44.329Z,3.62
2018-09-29T00:19:12.772Z,3.72
2018-09-29T00:21:41.122Z,3.65
2018-09-29T00:24:09.455Z,3.35
2018-09-29T00:26:37.769Z,3.55
2018-09-29T00:29:06.032Z,3.27
2018-09-29T00:31:34.347Z,4.12
2018-09-29T00:34:02.669Z,3.55
2018-09-29T00:36:30.912Z,2.75
2018-09-29T00:38:59.178Z,3.60
2018-09-29T00:41:27.450Z,3.30
2018-09-29T00:43:55.850Z,4.03
2018-09-29T00:46:24.125Z,3.60
2018-09-29T00:48:52.410Z,3.45
2018-09-29T00:51:20.727Z,3.50
2018-09-29T00:53:48.947Z,3.08
2018-09-29T00:56:17.243Z,3.75
2018-09-29T00:58:46.815Z,4.25
2018-09-29T01:01:15.180Z,3.30
2018-09-29T01:03:43.500Z,3.20
2018-09-29T01:06:11.822Z,2.72
2018-09-29T01:08:40.636Z,3.92
2018-09-29T01:11:08.904Z,3.15
2018-09-29T01:13:37.207Z,2.92
2018-09-29T01:16:05.541Z,3.25
2018-09-29T01:18:34.731Z,3.33
2018-09-29T01:21:05.988Z,3.62
2018-09-29T01:23:34.325Z,2.77
2018-09-29T01:26:02.651Z,2.72
2018-09-29T01:28:31.533Z,3.98
2018-09-29T01:30:59.873Z,3.10
2018-09-29T01:33:28.289Z,2.98
2018-09-29T01:35:56.694Z,3.65
2018-09-29T01:38:24.969Z,3.40
2018-09-29T01:40:53.871Z,3.37
2018-09-29T01:43:22.171Z,2.62
2018-09-29T01:45:50.686Z,3.22
2018-09-29T01:48:19.212Z,2.92
2018-09-29T01:50:51.445Z,3.25
2018-09-29T01:53:19.819Z,4.28
2018-09-29T01:55:48.116Z,2.83
2018-09-29T01:58:16.798Z,2.70
2018-09-29T02:00:45.108Z,3.20
2018-09-29T02:03:13.522Z,5.35
2018-09-29T02:05:42.841Z,2.87
2018-09-29T02:08:11.103Z,2.30
2018-09-29T02:10:39.427Z,2.42
2018-09-29T02:13:07.792Z,2.35
2018-09-29T02:15:36.072Z,2.30
2018-09-29T02:18:05.131Z,2.50
2018-09-29T02:20:33.626Z,2.47
2018-09-29T02:23:01.964Z,2.80
2018-09-29T02:25:30.282Z,3.25
2018-09-29T02:27:58.562Z,3.10
2018-09-29T02:30:26.897Z,2.72
2018-09-29T02:32:55.214Z,2.55
2018-09-29T02:35:23.484Z,2.90
2018-09-29T02:37:52.015Z,2.62
2018-09-29T02:40:20.368Z,2.37
2018-09-29T02:42:48.796Z,2.50
2018-09-29T02:45:17.053Z,3.90
2018-09-29T02:47:45.408Z,2.72
2018-09-29T02:50:13.747Z,2.70
2018-09-29T02:52:42.067Z,3.17
2018-09-29T02:55:10.364Z,2.77
2018-09-29T02:57:39.618Z,2.50
2018-09-29T03:00:07.958Z,2.60
2018-09-29T03:02:36.332Z,2.70
2018-09-29T03:05:04.576Z,2.50
2018-09-29T03:07:32.871Z,3.27
2018-09-29T03:10:01.168Z,3.08
2018-09-29T03:12:29.526Z,2.50
2018-09-29T03:14:57.855Z,2.58
2018-09-29T03:17:26.273Z,3.25
2018-09-29T03:19:54.637Z,2.80
2018-09-29T03:22:23.069Z,3.67
2018-09-29T03:24:51.313Z,2.83
2018-09-29T03:27:19.603Z,3.27
2018-09-29T03:29:47.925Z,3.50
2018-09-29T03:32:16.216Z,3.50
2018-09-29T03:34:44.550Z,2.80
2018-09-29T03:37:12.839Z,3.15
2018-09-29T03:39:41.129Z,2.90
2018-09-29T03:42:09.463Z,2.40
2018-09-29T03:44:38.721Z,2.30
2018-09-29T03:47:07.299Z,2.70
2018-09-29T03:49:35.607Z,2.55
2018-09-29T03:52:03.859Z,2.27
2018-09-29T03:54:32.324Z,4.05
2018-09-29T03:57:00.600Z,2.45
2018-09-29T03:59:28.939Z,2.50
2018-09-29T04:01:57.286Z,2.37
2018-09-29T04:04:25.570Z,2.25
2018-09-29T04:06:53.911Z,2.30
2018-09-29T04:09:22.144Z,2.45
2018-09-29T04:11:50.468Z,2.37
2018-09-29T04:14:19.700Z,2.20
2018-09-29T04:16:47.973Z,2.40
2018-09-29T04:19:16.336Z,2.50
2018-09-29T04:21:47.261Z,2.40
2018-09-29T04:24:16.361Z,2.70
2018-09-29T04:26:44.687Z,2.25
2018-09-29T04:29:19.461Z,2.42
2018-09-29T04:31:47.763Z,3.02
2018-09-29T04:34:16.060Z,2.30
2018-09-29T04:36:44.344Z,2.12
2018-09-29T04:39:13.872Z,2.50
2018-09-29T04:41:42.209Z,2.47
2018-09-29T04:44:11.048Z,1.85
2018-09-29T04:46:39.937Z,2.33
2018-09-29T04:49:08.448Z,2.45
2018-09-29T04:51:36.750Z,3.12
2018-09-29T04:54:05.062Z,2.05
2018-09-29T04:56:33.654Z,2.65
2018-09-29T04:59:01.932Z,2.52
2018-09-29T05:01:30.417Z,3.10
2018-09-29T05:03:58.725Z,2.65
2018-09-29T05:06:27.119Z,2.95
2018-09-29T05:09:01.495Z,2.35
2018-09-29T05:11:29.873Z,2.25
2018-09-29T05:13:59.047Z,3.05
2018-09-29T05:16:28.163Z,2.55
2018-09-29T05:18:56.455Z,1.77
2018-09-29T05:21:24.719Z,3.70
2018-09-29T05:23:53.161Z,1.95
2018-09-29T05:26:21.460Z,2.90
2018-09-29T05:28:49.810Z,2.87
2018-09-29T05:31:18.902Z,2.85
2018-09-29T05:33:47.764Z,2.95
2018-09-29T05:36:16.661Z,3.08
2018-09-29T05:38:45.528Z,3.70
2018-09-29T05:41:18.361Z,3.67
2018-09-29T05:43:47.335Z,4.00
2018-09-29T05:46:16.146Z,3.27
2018-09-29T05:48:44.933Z,3.40
2018-09-29T05:51:13.786Z,3.62
2018-09-29T05:53:42.786Z,2.40
2018-09-29T05:56:12.081Z,2.17
2018-09-29T05:58:40.574Z,3.10
2018-09-29T06:01:09.960Z,3.15
2018-09-29T06:03:38.689Z,2.72
2018-09-29T06:06:14.446Z,3.58
2018-09-29T06:08:42.824Z,3.60
2018-09-29T06:11:12.537Z,3.02
2018-09-29T06:13:41.266Z,3.52
2018-09-29T06:16:09.823Z,3.30
2018-09-29T06:18:38.716Z,3.50
2018-09-29T06:21:07.656Z,3.25
2018-09-29T06:23:36.520Z,3.10
2018-09-29T06:26:09.555Z,3.25
2018-09-29T06:28:38.432Z,3.45
2018-09-29T06:31:07.432Z,4.80
2018-09-29T06:33:36.553Z,3.15
2018-09-29T06:36:05.212Z,3.40
2018-09-29T06:38:34.072Z,3.72
2018-09-29T06:41:03.529Z,5.67
2018-09-29T06:43:31.983Z,5.37
2018-09-29T06:46:00.691Z,6.10
2018-09-29T06:48:29.800Z,3.60
2018-09-29T06:50:58.178Z,3.22
2018-09-29T06:53:26.642Z,3.50
2018-09-29T06:55:55.235Z,3.75
2018-09-29T06:58:23.611Z,3.58
2018-09-29T07:00:52.061Z,3.90
2018-09-29T07:03:20.734Z,4.25
2018-09-29T07:05:49.243Z,5.42
2018-09-29T07:08:18.075Z,2.92
2018-09-29T07:10:47.107Z,3.10
2018-09-29T07:13:15.967Z,4.90
2018-09-29T07:15:45.296Z,4.47
2018-09-29T07:18:14.186Z,3.98
2018-09-29T07:20:42.456Z,3.58
2018-09-29T07:23:11.270Z,3.42
2018-09-29T07:25:40.003Z,4.78
2018-09-29T07:28:08.569Z,5.55
2018-09-29T07:30:37.324Z,5.03
2018-09-29T07:33:05.917Z,4.00
2018-09-29T07:35:35.346Z,4.20
2018-09-29T07:38:03.954Z,3.80
2018-09-29T07:40:32.611Z,3.52
2018-09-29T07:43:00.986Z,3.83
2018-09-29T07:45:33.102Z,4.53
2018-09-29T07:48:01.642Z,4.25
2018-09-29T07:50:30.028Z,4.30
2018-09-29T07:52:58.626Z,4.00
2018-09-29T07:55:27.348Z,4.47
2018-09-29T07:57:55.687Z,5.10
2018-09-29T08:00:24.118Z,4.20
2018-09-29T08:02:52.500Z,4.25
2018-09-29T08:05:21.010Z,4.92
2018-09-29T08:07:49.543Z,5.30
2018-09-29T08:10:18.451Z,4.85
2018-09-29T08:12:46.850Z,5.53
2018-09-29T08:15:15.440Z,5.53
2018-09-29T08:17:44.774Z,4.67
2018-09-29T08:20:14.477Z,6.20
2018-09-29T08:22:43.271Z,6.70
2018-09-29T08:25:11.832Z,5.78
2018-09-29T08:27:45.865Z,5.85
2018-09-29T08:30:14.502Z,5.12
2018-09-29T08:32:47.964Z,4.90
2018-09-29T08:35:17.140Z,4.70
2018-09-29T08:37:45.532Z,4.10
2018-09-29T08:40:14.046Z,3.95
2018-09-29T08:42:42.629Z,3.17
2018-09-29T08:45:10.979Z,4.50
2018-09-29T08:47:39.566Z,4.17
2018-09-29T08:50:08.140Z,3.23
2018-09-29T08:52:36.509Z,5.57
2018-09-29T08:55:05.116Z,4.87
2018-09-29T08:57:33.543Z,3.70
2018-09-29T09:00:01.947Z,4.43
2018-09-29T09:02:30.350Z,4.23
2018-09-29T09:04:58.765Z,4.00
2018-09-29T09:07:27.374Z,3.03
2018-09-29T09:09:55.747Z,3.97
2018-09-29T09:12:24.218Z,3.90
2018-09-29T09:14:52.759Z,4.00
2018-09-29T09:17:21.214Z,3.50
2018-09-29T09:19:49.697Z,3.20
2018-09-29T09:22:18.189Z,3.60
2018-09-29T09:24:46.597Z,3.20
2018-09-29T09:27:15.044Z,2.87
2018-09-29T09:29:43.704Z,3.07
2018-09-29T09:32:12.048Z,2.33
2018-09-29T09:34:40.604Z,2.93
2018-09-29T09:37:08.940Z,3.77
2018-09-29T09:39:37.247Z,3.60
2018-09-29T09:42:05.635Z,2.50
2018-09-29T09:44:33.929Z,2.87
2018-09-29T09:47:02.285Z,3.27
2018-09-29T09:49:30.635Z,3.00
2018-09-29T09:51:58.906Z,3.00
2018-09-29T09:54:27.134Z,3.30
2018-09-29T09:56:55.549Z,2.93
2018-09-29T09:59:23.962Z,2.92
2018-09-29T10:01:57.769Z,2.30
2018-09-29T10:04:26.152Z,2.53
2018-09-29T10:06:54.545Z,2.63
2018-09-29T10:09:29.197Z,2.40
2018-09-29T10:11:57.544Z,2.13
2018-09-29T10:14:25.869Z,2.33
2018-09-29T10:16:54.344Z,1.90
2018-09-29T10:19:22.825Z,1.90
2018-09-29T10:21:51.126Z,4.30
2018-09-29T10:24:19.488Z,2.27
2018-09-29T10:26:47.916Z,2.13
2018-09-29T10:29:16.380Z,2.40
2018-09-29T10:31:44.777Z,1.97
2018-09-29T10:34:13.074Z,2.13
2018-09-29T10:36:41.328Z,2.50
2018-09-29T10:39:11.178Z,2.40
2018-09-29T10:41:39.762Z,1.90
2018-09-29T10:44:08.210Z,1.93
2018-09-29T10:46:36.471Z,2.37
2018-09-29T10:49:04.736Z,2.60
2018-09-29T10:51:33.053Z,2.33
2018-09-29T10:54:01.560Z,2.00
2018-09-29T10:56:30.352Z,2.60
2018-09-29T10:58:58.804Z,3.30
2018-09-29T11:01:27.106Z,2.70
2018-09-29T11:03:55.473Z,2.03
2018-09-29T11:06:23.763Z,2.40
2018-09-29T11:08:52.227Z,2.40
2018-09-29T11:11:20.533Z,2.57
2018-09-29T11:13:48.979Z,3.20
2018-09-29T11:16:17.465Z,2.70
2018-09-29T11:18:45.942Z,3.43
2018-09-29T11:21:14.224Z,2.43
2018-09-29T11:23:42.793Z,2.40
2018-09-29T11:26:11.221Z,3.00
2018-09-29T11:28:39.539Z,2.70
2018-09-29T11:31:07.897Z,3.57
2018-09-29T11:33:36.205Z,3.00
2018-09-29T11:36:04.517Z,2.87
2018-09-29T11:38:32.840Z,3.20
2018-09-29T11:41:01.996Z,2.57
2018-09-29T11:43:30.297Z,2.70
2018-09-29T11:45:58.671Z,2.80
2018-09-29T11:48:27.022Z,4.00
2018-09-29T11:50:55.400Z,3.10
2018-09-29T11:53:23.783Z,3.10
2018-09-29T11:55:52.201Z,2.80
2018-09-29T11:58:20.496Z,2.40
2018-09-29T12:00:50.024Z,3.00
2018-09-29T12:03:18.560Z,2.37
2018-09-29T12:05:46.897Z,2.83
2018-09-29T12:08:15.226Z,2.50
2018-09-29T12:10:43.472Z,2.00
2018-09-29T12:13:11.722Z,2.50
2018-09-29T12:15:40.124Z,2.37
2018-09-29T12:18:08.420Z,2.13
2018-09-29T12:20:36.744Z,2.27
2018-09-29T12:23:05.051Z,2.50
2018-09-29T12:25:33.391Z,2.53
2018-09-29T12:28:01.727Z,2.80
2018-09-29T12:30:30.053Z,1.60
2018-09-29T12:32:58.458Z,2.20
2018-09-29T12:35:26.820Z,1.93
2018-09-29T12:37:55.196Z,2.20
2018-09-29T12:40:23.551Z,1.83
2018-09-29T12:42:51.933Z,1.93
2018-09-29T12:45:20.250Z,1.87
2018-09-29T12:47:48.523Z,2.77
2018-09-29T12:50:17.188Z,2.33
2018-09-29T12:52:45.451Z,2.83
2018-09-29T12:55:13.840Z,1.80
2018-09-29T12:57:42.105Z,2.07
2018-09-29T13:00:10.480Z,1.60
2018-09-29T13:02:38.988Z,2.30
2018-09-29T13:07:58.070Z,2.20
2018-09-29T13:10:26.431Z,1.83
2018-09-29T13:12:54.933Z,1.90
2018-09-29T13:15:23.435Z,2.20
2018-09-29T13:17:51.743Z,2.00
2018-09-29T13:20:20.218Z,1.90
2018-09-29T13:23:02.884Z,1.67
2018-09-29T13:25:31.422Z,1.77
2018-09-29T13:27:59.733Z,2.03
2018-09-29T13:30:28.359Z,3.10
2018-09-29T13:32:56.775Z,1.50
2018-09-29T13:35:25.372Z,1.70
2018-09-29T13:37:53.713Z,1.70
2018-09-29T13:40:22.094Z,2.07
2018-09-29T13:42:50.482Z,1.73
2018-09-29T13:45:18.864Z,2.60
2018-09-29T13:47:47.400Z,1.20
2018-09-29T13:50:15.831Z,1.97
2018-09-29T13:52:44.356Z,1.30
2018-09-29T13:55:12.728Z,1.93
2018-09-29T13:57:41.187Z,1.70
2018-09-29T14:00:12.660Z,2.03
2018-09-29T14:02:44.301Z,1.43
2018-09-29T14:05:12.760Z,1.97
2018-09-29T14:07:41.375Z,1.70
2018-09-29T14:10:09.896Z,1.97
2018-09-29T14:12:38.274Z,1.40
2018-09-29T14:15:06.821Z,2.17
2018-09-29T14:17:35.960Z,2.00
2018-09-29T14:20:05.303Z,2.33
2018-09-29T14:22:33.631Z,1.93
2018-09-29T14:25:03.012Z,1.87
2018-09-29T14:27:59.983Z,1.70
2018-09-29T14:30:28.391Z,1.53
2018-09-29T14:32:56.895Z,1.90
2018-09-29T14:35:25.188Z,1.57
2018-09-29T14:37:53.782Z,3.50
2018-09-29T14:40:22.152Z,1.70
2018-09-29T14:42:50.618Z,1.77
2018-09-29T14:46:54.544Z,1.53
2018-09-29T14:49:23.111Z,1.82
2018-09-29T14:51:51.593Z,1.60
2018-09-29T14:54:40.903Z,1.82
2018-09-29T14:57:09.340Z,1.87
2018-09-29T14:59:37.661Z,1.50
2018-09-29T15:02:06.083Z,1.50
2018-09-29T15:04:34.411Z,1.83
2018-09-29T15:07:02.978Z,1.80
2018-09-29T15:09:31.413Z,1.57
2018-09-29T15:12:00.010Z,1.63
2018-09-29T15:14:28.341Z,1.83
2018-09-29T15:16:56.679Z,1.70
2018-09-29T15:19:25.016Z,1.43
2018-09-29T15:21:53.318Z,1.30
2018-09-29T15:24:21.754Z,2.10
2018-09-29T15:26:50.100Z,1.40
2018-09-29T15:29:18.447Z,1.40
2018-09-29T15:31:46.816Z,1.40
2018-09-29T15:34:15.213Z,1.87
2018-09-29T15:36:43.556Z,1.80
2018-09-29T15:39:12.978Z,1.70
2018-09-29T15:41:41.801Z,1.40
2018-09-29T15:44:10.686Z,1.87
2018-09-29T15:46:39.672Z,1.70
2018-09-29T15:49:08.104Z,1.60
2018-09-29T15:51:36.602Z,1.23
2018-09-29T15:54:04.911Z,1.97
2018-09-29T15:56:33.230Z,2.43
2018-09-29T15:59:01.520Z,2.10
2018-09-29T16:01:29.870Z,2.97
2018-09-29T16:03:58.141Z,2.33
2018-09-29T16:06:26.349Z,1.50
2018-09-29T16:08:54.713Z,1.67
2018-09-29T16:11:22.978Z,1.63
2018-09-29T16:13:51.285Z,3.13
2018-09-29T16:16:19.656Z,2.90
2018-09-29T16:18:48.606Z,2.00
2018-09-29T16:21:17.346Z,2.00
2018-09-29T16:23:45.630Z,1.60
2018-09-29T16:26:13.975Z,2.20
2018-09-29T16:28:42.328Z,1.90
2018-09-29T16:31:10.644Z,2.03
2018-09-29T16:33:38.894Z,2.20
2018-09-29T16:36:07.203Z,1.80
2018-09-29T16:38:35.541Z,2.83
2018-09-29T16:41:03.832Z,2.73
2018-09-29T16:43:32.146Z,10.20
2018-09-29T16:46:01.288Z,2.00
2018-09-29T16:48:29.557Z,7.20
2018-09-29T16:50:57.940Z,2.10
2018-09-29T16:53:26.229Z,3.47
2018-09-29T16:55:54.577Z,4.67
2018-09-29T16:58:22.859Z,6.40
2018-09-29T17:00:51.352Z,6.13
2018-09-29T17:03:19.723Z,6.40
2018-09-29T17:05:48.017Z,4.47
2018-09-29T17:08:16.295Z,4.07
2018-09-29T17:10:44.608Z,3.67
2018-09-29T17:13:12.891Z,3.83
2018-09-29T17:15:41.181Z,3.60
2018-09-29T17:18:09.431Z,3.87
2018-09-29T17:20:37.931Z,5.67
2018-09-29T17:23:06.538Z,3.70
2018-09-29T17:25:34.835Z,4.30
2018-09-29T17:28:03.137Z,7.27
2018-09-29T17:30:31.462Z,13.47
2018-09-29T17:32:59.732Z,23.97
2018-09-29T17:35:28.043Z,53.07
2018-09-29T17:37:56.416Z,27.93
2018-09-29T17:40:24.991Z,27.37
2018-09-29T17:42:53.309Z,25.10
2018-09-29T17:45:21.666Z,29.07
2018-09-29T17:48:06.230Z,20.87
2018-09-29T17:50:34.503Z,26.93
2018-09-29T17:53:02.770Z,24.93
2018-09-29T17:55:31.073Z,19.07
2018-09-29T17:57:59.322Z,19.77
2018-09-29T18:00:27.571Z,29.60
2018-09-29T18:02:55.900Z,21.33
2018-09-29T18:05:24.182Z,15.77
2018-09-29T18:07:56.289Z,33.00
2018-09-29T18:10:24.559Z,27.23
2018-09-29T18:12:53.248Z,33.53
2018-09-29T18:15:21.956Z,12.80
2018-09-29T18:17:50.317Z,16.20
2018-09-29T18:20:18.727Z,18.02
2018-09-29T18:22:47.062Z,21.97
2018-09-29T18:25:15.348Z,35.00
2018-09-29T18:27:43.973Z,38.58
2018-09-29T18:30:12.298Z,15.05
2018-09-29T18:32:40.679Z,19.12
2018-09-29T18:35:09.044Z,41.18
2018-09-29T18:37:37.394Z,35.73
2018-09-29T18:40:05.897Z,41.18
2018-09-29T18:42:34.468Z,39.80
2018-09-29T18:45:02.832Z,40.40
2018-09-29T18:47:31.127Z,38.58
2018-09-29T18:49:59.597Z,36.10
2018-09-29T18:52:27.961Z,34.53
2018-09-29T18:54:56.337Z,30.45
2018-09-29T18:57:25.537Z,27.85
2018-09-29T18:59:54.037Z,24.90
2018-09-29T19:02:22.706Z,25.20
2018-09-29T19:04:51.193Z,25.65
2018-09-29T19:07:19.484Z,23.47
2018-09-29T19:09:47.835Z,28.77
2018-09-29T19:12:16.339Z,28.73
2018-09-29T19:14:51.014Z,24.77
2018-09-29T19:17:19.418Z,21.20
2018-09-29T19:19:47.887Z,21.00
2018-09-29T19:22:16.361Z,20.70
2018-09-29T19:24:44.810Z,22.07
2018-09-29T19:27:13.111Z,22.87
2018-09-29T19:29:41.534Z,21.00
2018-09-29T19:32:09.870Z,22.07
2018-09-29T19:34:38.184Z,28.38
2018-09-29T19:37:06.515Z,24.30
2018-09-29T19:39:34.825Z,27.15
2018-09-29T19:42:03.127Z,31.23
2018-09-29T19:44:31.919Z,23.83
2018-09-29T19:47:00.195Z,25.48
2018-09-29T19:49:28.509Z,25.00
2018-09-29T19:51:56.773Z,24.37
2018-09-29T19:54:25.003Z,23.90
2018-09-29T19:56:53.276Z,24.25
2018-09-29T19:59:21.593Z,24.10
2018-09-29T20:01:49.926Z,23.07
2018-09-29T20:04:18.213Z,23.12
2018-09-29T20:06:46.548Z,22.80
2018-09-29T20:09:14.971Z,20.80
2018-09-29T20:11:43.308Z,19.70
2018-09-29T20:14:11.595Z,36.42
2018-09-29T20:16:39.964Z,46.42
2018-09-29T20:19:08.281Z,38.40
2018-09-29T20:21:36.610Z,31.15
2018-09-29T20:24:05.004Z,25.77
2018-09-29T20:26:33.242Z,20.57
2018-09-29T20:29:01.548Z,20.00
2018-09-29T20:31:29.890Z,20.48
2018-09-29T20:33:58.257Z,20.00
2018-09-29T20:36:26.675Z,18.50
2018-09-29T20:38:55.019Z,17.90
2018-09-29T20:41:23.353Z,17.62
2018-09-29T20:43:58.237Z,18.07
2018-09-29T20:46:26.634Z,16.73
2018-09-29T20:48:55.013Z,15.08
2018-09-29T20:51:23.321Z,14.60
2018-09-29T20:53:51.639Z,42.35
2018-09-29T20:56:19.994Z,47.70
2018-09-29T20:58:49.250Z,49.33
2018-09-29T21:01:17.731Z,22.25
2018-09-29T21:03:46.090Z,14.00
2018-09-29T21:06:14.498Z,11.57
2018-09-29T21:08:43.008Z,29.50
2018-09-29T21:11:11.312Z,24.37
2018-09-29T21:13:39.678Z,24.07
2018-09-29T21:16:08.021Z,24.18
2018-09-29T21:18:36.332Z,21.85
2018-09-29T21:21:04.680Z,38.67
2018-09-29T21:23:33.254Z,42.17
2018-09-29T21:26:02.722Z,35.17
2018-09-29T21:28:31.585Z,21.90
2018-09-29T21:30:59.835Z,20.97
2018-09-29T21:33:28.087Z,48.90
2018-09-29T21:35:56.343Z,24.10
2018-09-29T21:38:24.656Z,19.10
2018-09-29T21:40:52.912Z,20.85
2018-09-29T21:43:40.174Z,19.12
2018-09-29T21:46:08.459Z,19.73
2018-09-29T21:48:37.969Z,29.00
2018-09-29T21:51:06.197Z,28.40
2018-09-29T21:53:34.494Z,37.05
2018-09-29T21:56:03.035Z,32.40
2018-09-29T21:58:31.350Z,42.55
2018-09-29T22:01:05.006Z,24.70
2018-09-29T22:03:33.295Z,24.70
2018-09-29T22:06:01.607Z,22.48
2018-09-29T22:08:29.869Z,30.62
2018-09-29T22:10:58.139Z,62.25
2018-09-29T22:13:26.420Z,40.30
2018-09-29T22:15:54.688Z,37.00
2018-09-29T22:18:22.988Z,23.47
2018-09-29T22:20:51.513Z,28.95
2018-09-29T22:23:19.748Z,34.80
2018-09-29T22:25:48.058Z,18.82
2018-09-29T22:28:23.007Z,17.45
2018-09-29T22:30:51.308Z,12.95
2018-09-29T22:33:19.592Z,12.80
2018-09-29T22:35:47.877Z,10.40
2018-09-29T22:38:16.164Z,16.57
2018-09-29T22:40:44.433Z,14.10
2018-09-29T22:43:12.752Z,14.33
2018-09-29T22:45:41.456Z,15.78
2018-09-29T22:48:10.361Z,12.20
2018-09-29T22:50:38.878Z,13.08
2018-09-29T22:53:13.977Z,11.25
2018-09-29T22:55:42.643Z,14.20
2018-09-29T22:58:10.999Z,10.90
2018-09-29T23:00:39.575Z,14.73
2018-09-29T23:03:08.176Z,11.70
2018-09-29T23:05:36.431Z,14.30
2018-09-29T23:08:04.688Z,12.30
2018-09-29T23:10:32.967Z,11.88
2018-09-29T23:13:01.246Z,12.35
2018-09-29T23:15:29.560Z,13.40
2018-09-29T23:17:57.819Z,12.37
2018-09-29T23:20:26.105Z,14.30
2018-09-29T23:22:54.361Z,15.83
2018-09-29T23:25:23.209Z,12.25
2018-09-29T23:27:51.509Z,11.35
2018-09-29T23:30:19.756Z,10.20
2018-09-29T23:32:48.028Z,12.95
2018-09-29T23:35:16.325Z,9.28
2018-09-29T23:37:44.597Z,8.05
2018-09-29T23:40:12.889Z,8.15
2018-09-29T23:42:41.155Z,6.70
2018-09-29T23:45:09.422Z,5.83
2018-09-29T23:47:37.729Z,5.47
2018-09-29T23:50:06.006Z,6.45
2018-09-29T23:52:34.272Z,7.78
2018-09-29T23:55:02.554Z,6.08
2018-09-29T23:57:30.844Z,5.90
2018-09-29T23:59:59.147Z,6.33
